Time;durP1;ratioP1;P1;durP2;ratioP2;P2;SDS_P1;SDS_P2;PMS_P1;PMS_P2;Temp;Humidity;BMP_temperature;BMP_pressure;BME280_temperature;BME280_humidity;BME280_pressure;Samples;Min_cycle;Max_cycle;Signal;HPM_P1;HPM_P2
2021/06/24 00:00:41;;;;;;;36.00;24.85;;;26.90;65.10;;;;;;4995560;28;20035;-50
2021/06/24 00:03:07;;;;;;;35.22;25.05;;;26.80;65.40;;;;;;4995505;28;20034;-59
2021/06/24 00:05:33;;;;;;;30.70;24.55;;;26.70;65.40;;;;;;4995848;28;20026;-52
2021/06/24 00:07:59;;;;;;;37.35;25.27;;;26.70;65.40;;;;;;4996251;28;20041;-50
2021/06/24 00:10:25;;;;;;;32.13;24.27;;;26.80;65.30;;;;;;4995010;28;20030;-49
2021/06/24 00:12:50;;;;;;;33.70;23.67;;;26.80;65.20;;;;;;4994481;28;20076;-52
2021/06/24 00:15:16;;;;;;;33.50;23.92;;;26.80;65.10;;;;;;4977949;28;20081;-47
2021/06/24 00:17:42;;;;;;;31.73;24.52;;;26.80;65.20;;;;;;4994291;28;20156;-47
2021/06/24 00:20:08;;;;;;;28.88;23.58;;;26.70;65.30;;;;;;4995106;28;20035;-49
2021/06/24 00:22:34;;;;;;;34.05;24.95;;;26.80;65.30;;;;;;4978043;28;20069;-46
2021/06/24 00:25:00;;;;;;;33.55;25.83;;;26.80;65.30;;;;;;4995187;28;20137;-49
2021/06/24 00:27:25;;;;;;;37.80;25.95;;;26.80;65.30;;;;;;4994676;28;20478;-46
2021/06/24 00:29:51;;;;;;;33.40;25.95;;;26.80;65.20;;;;;;4994244;28;20117;-50
2021/06/24 00:32:17;;;;;;;32.35;26.73;;;26.70;65.50;;;;;;4975801;28;20445;-47
2021/06/24 00:34:43;;;;;;;36.40;26.90;;;26.60;65.80;;;;;;4995458;28;20462;-48
2021/06/24 00:37:08;;;;;;;34.75;26.27;;;26.60;65.90;;;;;;4994619;28;20377;-47
2021/06/24 00:39:34;;;;;;;35.92;27.50;;;26.60;66.10;;;;;;4994751;28;20168;-47
2021/06/24 00:42:01;;;;;;;35.78;27.50;;;26.40;66.50;;;;;;4977665;28;20067;-45
2021/06/24 00:44:27;;;;;;;31.75;25.58;;;26.40;66.90;;;;;;4994391;28;20030;-48
2021/06/24 00:46:54;;;;;;;36.10;26.67;;;26.30;66.90;;;;;;4994880;28;20458;-47
2021/06/24 00:49:20;;;;;;;38.22;26.30;;;26.30;67.00;;;;;;4994350;28;20034;-51
2021/06/24 00:51:46;;;;;;;35.63;25.20;;;26.40;66.90;;;;;;4993709;28;20031;-50
2021/06/24 00:54:12;;;;;;;37.60;25.88;;;26.40;66.60;;;;;;4993198;28;20033;-51
2021/06/24 00:56:38;;;;;;;34.90;26.13;;;26.50;66.50;;;;;;4993767;28;20030;-52
2021/06/24 00:59:05;;;;;;;35.65;23.88;;;26.50;66.20;;;;;;4993179;28;20031;-47
2021/06/24 01:01:33;;;;;;;30.75;24.40;;;26.50;66.10;;;;;;4994580;28;20109;-45
2021/06/24 01:03:59;;;;;;;35.80;26.23;;;26.60;66.00;;;;;;4977202;28;20031;-50
2021/06/24 01:06:25;;;;;;;37.03;26.15;;;26.60;65.90;;;;;;4994232;28;20022;-46
2021/06/24 01:08:51;;;;;;;33.90;25.38;;;26.60;66.00;;;;;;4994712;28;20129;-51
2021/06/24 01:11:17;;;;;;;33.30;24.95;;;26.60;66.00;;;;;;4993927;28;20026;-50
2021/06/24 01:13:47;;;;;;;38.17;28.25;;;26.50;66.80;;;;;;4994416;28;20081;-46
2021/06/24 01:16:14;;;;;;;41.97;28.02;;;26.40;66.50;;;;;;4976662;28;20054;-50
2021/06/24 01:18:40;;;;;;;34.88;27.55;;;26.30;66.80;;;;;;4993358;28;20062;-46
2021/06/24 01:21:07;;;;;;;36.10;26.77;;;26.10;67.40;;;;;;4994390;28;20019;-51
2021/06/24 01:23:38;;;;;;;37.45;28.98;;;26.10;67.70;;;;;;4994212;28;20034;-42
2021/06/24 01:26:05;;;;;;;42.45;29.73;;;26.10;67.80;;;;;;4976286;28;20034;-42
2021/06/24 01:28:30;;;;;;;39.38;29.15;;;26.10;67.70;;;;;;4993362;28;20066;-43
2021/06/24 01:30:56;;;;;;;41.95;31.00;;;26.00;68.20;;;;;;4994026;28;20068;-42
2021/06/24 01:33:25;;;;;;;43.65;29.10;;;25.80;68.80;;;;;;4993636;28;20026;-41
2021/06/24 01:36:00;;;;;;;39.00;28.17;;;25.70;69.20;;;;;;4994155;28;20030;-41
2021/06/24 01:38:26;;;;;;;35.58;26.40;;;25.70;69.20;;;;;;4992094;28;20030;-41
2021/06/24 01:40:52;;;;;;;35.95;27.05;;;25.80;69.20;;;;;;4993691;28;20058;-41
2021/06/24 01:43:18;;;;;;;38.42;27.70;;;25.90;69.00;;;;;;4993028;28;20030;-42
2021/06/24 01:45:53;;;;;;;37.85;29.25;;;25.90;68.90;;;;;;4992432;28;20049;-40
2021/06/24 01:48:20;;;;;;;40.78;28.00;;;25.80;68.80;;;;;;4993351;28;20074;-40
2021/06/24 01:50:46;;;;;;;37.30;27.92;;;25.80;69.20;;;;;;4960349;28;20477;-41
2021/06/24 01:53:12;;;;;;;43.70;29.08;;;25.80;69.20;;;;;;4992876;28;20105;-43
2021/06/24 01:55:40;;;;;;;38.90;28.00;;;25.80;69.00;;;;;;4993652;28;20499;-40
2021/06/24 01:58:08;;;;;;;36.67;27.52;;;25.90;69.00;;;;;;4976274;28;20492;-47
2021/06/24 02:00:34;;;;;;;40.08;28.73;;;25.90;68.80;;;;;;4965022;28;20452;-41
2021/06/24 02:03:01;;;;;;;40.35;29.33;;;26.00;68.60;;;;;;4978436;28;20474;-45
2021/06/24 02:05:26;;;;;;;40.03;29.65;;;25.90;68.90;;;;;;4986039;28;20057;-42
2021/06/24 02:07:52;;;;;;;36.58;27.88;;;25.80;69.30;;;;;;4991638;28;20068;-44
2021/06/24 02:10:18;;;;;;;42.13;27.98;;;25.70;69.40;;;;;;4991991;28;20037;-45
2021/06/24 02:12:44;;;;;;;32.55;25.15;;;25.80;69.40;;;;;;4992680;28;20053;-44
2021/06/24 02:15:14;;;;;;;39.60;28.80;;;25.80;69.30;;;;;;4983963;28;20030;-45
2021/06/24 02:17:40;;;;;;;41.22;28.98;;;25.80;69.20;;;;;;4989315;28;20108;-41
2021/06/24 02:20:08;;;;;;;40.10;30.13;;;25.90;69.10;;;;;;4973822;28;20453;-42
2021/06/24 02:22:35;;;;;;;40.80;31.33;;;25.80;69.30;;;;;;4982286;28;20048;-41
2021/06/24 02:27:47;;;;;;;36.20;26.67;;;25.70;69.80;;;;;;4992222;28;20147;-42
2021/06/24 02:30:14;;;;;;;38.95;29.50;;;25.70;69.60;;;;;;4991889;28;20074;-42
2021/06/24 02:32:40;;;;;;;37.65;30.60;;;25.80;69.50;;;;;;4975341;28;20038;-41
2021/06/24 02:35:09;;;;;;;40.15;31.17;;;25.80;69.30;;;;;;4991487;28;20436;-43
2021/06/24 02:37:35;;;;;;;42.53;29.98;;;25.90;69.30;;;;;;4992237;28;20035;-41
2021/06/24 02:40:01;;;;;;;35.92;28.98;;;25.90;69.30;;;;;;4992682;28;20033;-44
2021/06/24 02:42:27;;;;;;;37.10;29.77;;;25.90;69.30;;;;;;4990716;28;20084;-41
2021/06/24 02:44:53;;;;;;;40.83;28.92;;;25.90;69.30;;;;;;4992334;28;20069;-42
2021/06/24 02:47:19;;;;;;;35.85;27.05;;;25.90;69.20;;;;;;4974279;28;20046;-42
2021/06/24 02:49:44;;;;;;;37.90;30.88;;;25.90;69.20;;;;;;4992432;28;20084;-42
2021/06/24 02:52:10;;;;;;;42.95;31.80;;;25.90;69.30;;;;;;4991951;28;20492;-41
2021/06/24 02:54:36;;;;;;;45.97;30.63;;;25.90;69.40;;;;;;4991142;28;20484;-44
2021/06/24 02:57:02;;;;;;;42.00;30.67;;;25.90;69.50;;;;;;4991933;28;20065;-41
2021/06/24 02:59:47;;;;;;;40.55;30.73;;;25.80;69.50;;;;;;4991986;28;20334;-44
2021/06/24 03:04:57;;;;;;;40.45;30.60;;;25.80;69.80;;;;;;4992068;28;20042;-42
2021/06/24 03:07:23;;;;;;;42.53;32.08;;;25.70;70.10;;;;;;4974021;28;20027;-43
2021/06/24 03:09:49;;;;;;;41.60;30.88;;;25.70;70.00;;;;;;4992058;28;20046;-42
2021/06/24 03:12:14;;;;;;;40.50;31.13;;;25.70;70.00;;;;;;4991382;28;20488;-44
2021/06/24 03:14:40;;;;;;;46.85;32.63;;;25.70;70.10;;;;;;4974608;28;20026;-40
2021/06/24 03:17:06;;;;;;;41.05;32.58;;;25.60;70.20;;;;;;4974866;28;20030;-40
2021/06/24 03:19:32;;;;;;;45.05;34.42;;;25.50;70.70;;;;;;4991416;28;20026;-41
2021/06/24 03:21:57;;;;;;;46.85;34.00;;;25.50;71.10;;;;;;4990583;28;20121;-43
2021/06/24 03:24:23;;;;;;;43.20;34.55;;;25.40;71.10;;;;;;4991816;28;20460;-41
2021/06/24 03:26:49;;;;;;;42.72;32.67;;;25.50;71.20;;;;;;4991913;28;20488;-41
2021/06/24 03:29:15;;;;;;;46.47;34.42;;;25.40;71.00;;;;;;4974174;28;20027;-45
2021/06/24 03:31:41;;;;;;;41.53;32.55;;;25.50;70.80;;;;;;4974555;28;20117;-43
2021/06/24 03:34:06;;;;;;;42.30;33.10;;;25.60;70.70;;;;;;4991890;28;20105;-45
2021/06/24 03:36:32;;;;;;;43.20;30.00;;;25.70;70.50;;;;;;4991851;28;20031;-41
2021/06/24 03:38:58;;;;;;;38.90;28.88;;;25.70;70.30;;;;;;4991760;28;20400;-44
2021/06/24 03:41:25;;;;;;;34.20;26.58;;;25.80;70.20;;;;;;4974031;28;20093;-41
2021/06/24 03:43:52;;;;;;;33.85;26.10;;;25.80;70.20;;;;;;4991688;28;20035;-42
2021/06/24 03:46:18;;;;;;;32.65;24.23;;;25.80;70.10;;;;;;4990905;28;20082;-48
2021/06/24 03:48:44;;;;;;;30.15;23.63;;;25.90;70.20;;;;;;4974485;28;20046;-47
2021/06/24 03:51:10;;;;;;;27.25;23.10;;;25.90;70.00;;;;;;4992066;28;20046;-41
2021/06/24 03:53:35;;;;;;;32.92;24.52;;;25.90;69.80;;;;;;4991380;28;20029;-44
2021/06/24 03:56:02;;;;;;;30.13;23.65;;;26.00;69.70;;;;;;4991766;28;20054;-41
2021/06/24 03:58:28;;;;;;;31.80;24.25;;;26.00;69.60;;;;;;4973892;28;20056;-43
2021/06/24 04:00:54;;;;;;;29.70;22.35;;;26.10;69.40;;;;;;4991602;28;20132;-45
2021/06/24 04:03:20;;;;;;;33.25;26.58;;;26.10;69.00;;;;;;4990860;28;20458;-45
2021/06/24 04:05:45;;;;;;;34.13;27.17;;;26.20;68.90;;;;;;4974408;28;20037;-44
2021/06/24 04:08:11;;;;;;;38.63;30.10;;;26.10;69.00;;;;;;4995632;28;20109;-43
2021/06/24 04:10:37;;;;;;;38.00;29.75;;;26.10;68.90;;;;;;4993703;28;20297;-41
2021/06/24 04:13:04;;;;;;;40.45;30.10;;;26.00;69.00;;;;;;4995100;28;20093;-40
2021/06/24 04:15:30;;;;;;;40.58;33.20;;;26.10;68.70;;;;;;4994743;28;20050;-41
2021/06/24 04:17:56;;;;;;;40.72;32.42;;;26.20;68.30;;;;;;4977670;28;20096;-41
2021/06/24 04:20:22;;;;;;;42.40;34.38;;;26.10;68.30;;;;;;4994387;28;20501;-42
2021/06/24 04:22:48;;;;;;;44.50;32.85;;;26.20;68.20;;;;;;4994798;28;20425;-41
2021/06/24 04:25:17;;;;;;;30.33;25.83;;;26.30;68.00;;;;;;4993893;28;20496;-44
2021/06/24 04:27:44;;;;;;;36.60;31.20;;;26.30;67.90;;;;;;4994521;28;20354;-44
2021/06/24 04:30:10;;;;;;;40.33;32.25;;;26.40;67.60;;;;;;4977240;28;20126;-42
2021/06/24 04:32:37;;;;;;;46.80;36.47;;;26.50;67.40;;;;;;4994001;28;20060;-41
2021/06/24 04:35:03;;;;;;;46.83;33.88;;;26.50;67.20;;;;;;4993603;28;20046;-46
2021/06/24 04:37:29;;;;;;;47.00;34.97;;;26.60;66.90;;;;;;4992964;28;20023;-45
2021/06/24 04:39:55;;;;;;;50.92;35.83;;;26.60;66.70;;;;;;4994410;28;20022;-42
2021/06/24 04:42:20;;;;;;;47.83;35.97;;;26.60;66.80;;;;;;4976900;28;20417;-45
2021/06/24 04:44:46;;;;;;;47.20;32.90;;;26.70;66.60;;;;;;4977258;28;20088;-43
2021/06/24 04:47:12;;;;;;;42.00;33.40;;;26.80;66.20;;;;;;4994280;28;20057;-40
2021/06/24 04:49:37;;;;;;;46.88;33.17;;;26.80;66.00;;;;;;4993806;28;20073;-41
2021/06/24 04:52:03;;;;;;;53.20;35.13;;;26.90;66.00;;;;;;4992874;28;20037;-47
2021/06/24 04:54:29;;;;;;;52.10;36.17;;;26.90;65.60;;;;;;4993752;28;20051;-43
2021/06/24 04:56:55;;;;;;;54.38;35.30;;;26.90;65.30;;;;;;4994765;28;20422;-46
2021/06/24 04:59:21;;;;;;;51.38;35.22;;;26.90;65.40;;;;;;4993992;28;20030;-43
2021/06/24 05:01:47;;;;;;;44.13;31.08;;;26.90;65.50;;;;;;4994202;28;20097;-42
2021/06/24 05:04:12;;;;;;;38.75;29.80;;;26.90;65.60;;;;;;4993987;28;20110;-41
2021/06/24 05:06:39;;;;;;;46.72;32.22;;;26.90;65.50;;;;;;4993950;28;20023;-44
2021/06/24 05:09:05;;;;;;;43.75;31.45;;;26.90;65.80;;;;;;4976733;28;20089;-41
2021/06/24 05:11:31;;;;;;;42.10;31.48;;;27.00;65.20;;;;;;4992382;28;20026;-41
2021/06/24 05:13:57;;;;;;;42.60;32.15;;;27.10;64.90;;;;;;4994157;28;20034;-46
2021/06/24 05:16:23;;;;;;;47.50;30.25;;;27.30;64.90;;;;;;4993551;28;20074;-52
2021/06/24 05:18:49;;;;;;;44.08;32.47;;;27.30;64.20;;;;;;4991790;28;20120;-42
2021/06/24 05:21:15;;;;;;;42.75;32.28;;;27.40;63.90;;;;;;4976709;28;20034;-42
2021/06/24 05:23:43;;;;;;;39.60;28.60;;;27.60;63.30;;;;;;4992404;28;20022;-42
2021/06/24 05:26:09;;;;;;;38.45;28.45;;;27.70;63.00;;;;;;4993909;28;20064;-43
2021/06/24 05:28:35;;;;;;;44.03;31.30;;;27.80;62.40;;;;;;4993239;28;20058;-45
2021/06/24 05:31:02;;;;;;;39.33;30.23;;;27.80;62.40;;;;;;4993954;28;20109;-43
2021/06/24 05:33:27;;;;;;;41.85;29.70;;;27.80;62.50;;;;;;4993235;28;20034;-41
2021/06/24 05:35:53;;;;;;;47.50;33.55;;;27.80;62.50;;;;;;4993573;28;20018;-41
2021/06/24 05:38:19;;;;;;;47.40;32.97;;;27.80;62.30;;;;;;4975565;28;20038;-44
2021/06/24 05:40:47;;;;;;;48.60;35.88;;;27.90;61.90;;;;;;4974605;28;20457;-41
2021/06/24 05:43:13;;;;;;;45.50;34.53;;;27.90;62.10;;;;;;4993340;28;20026;-41
2021/06/24 05:45:39;;;;;;;44.63;33.58;;;27.90;61.80;;;;;;4988559;28;20053;-41
2021/06/24 05:48:05;;;;;;;46.92;34.08;;;27.90;61.70;;;;;;4975345;28;20047;-44
2021/06/24 05:50:31;;;;;;;44.03;33.38;;;27.90;61.90;;;;;;4991694;28;20034;-43
2021/06/24 05:52:57;;;;;;;46.60;33.45;;;27.90;61.70;;;;;;4992374;28;20090;-47
2021/06/24 05:58:10;;;;;;;50.05;36.60;;;28.10;61.40;;;;;;4978337;28;20076;-43
2021/06/24 06:00:36;;;;;;;80.78;37.55;;;28.40;60.70;;;;;;4992628;28;20030;-44
2021/06/24 06:03:02;;;;;;;88.55;39.10;;;28.60;60.30;;;;;;4992525;28;20030;-41
2021/06/24 06:05:28;;;;;;;48.47;32.53;;;28.90;59.80;;;;;;4975008;28;20030;-42
2021/06/24 06:07:53;;;;;;;47.10;32.15;;;29.10;59.20;;;;;;4992910;28;20030;-42
2021/06/24 06:10:19;;;;;;;49.33;31.48;;;29.20;58.60;;;;;;4974413;28;20038;-41
2021/06/24 06:12:45;;;;;;;50.05;33.67;;;29.10;58.60;;;;;;4991753;28;20030;-45
2021/06/24 06:15:11;;;;;;;44.60;32.00;;;29.20;58.60;;;;;;4985054;28;20023;-45
2021/06/24 06:17:38;;;;;;;47.45;31.45;;;29.30;58.40;;;;;;4991077;28;20194;-43
2021/06/24 06:20:05;;;;;;;43.08;29.25;;;29.30;58.00;;;;;;4991614;28;20105;-44
2021/06/24 06:22:31;;;;;;;39.70;30.30;;;29.40;58.20;;;;;;4990500;28;20030;-42
2021/06/24 06:24:57;;;;;;;51.38;33.30;;;29.40;57.70;;;;;;4992070;28;20038;-43
2021/06/24 06:27:22;;;;;;;53.67;34.00;;;29.30;58.20;;;;;;4992402;28;20377;-42
2021/06/24 06:29:48;;;;;;;44.17;32.03;;;29.20;58.50;;;;;;4991743;28;20058;-44
2021/06/24 06:32:14;;;;;;;36.72;29.40;;;29.30;58.20;;;;;;4991998;28;20057;-44
2021/06/24 06:34:40;;;;;;;42.65;29.27;;;29.50;57.70;;;;;;4991727;28;20026;-41
2021/06/24 06:37:06;;;;;;;38.35;28.05;;;29.60;57.20;;;;;;4987779;28;20026;-42
2021/06/24 06:39:31;;;;;;;44.35;30.50;;;29.70;57.00;;;;;;4985625;28;20030;-44
2021/06/24 06:41:57;;;;;;;37.50;26.95;;;29.80;56.80;;;;;;4992052;28;20413;-44
2021/06/24 06:44:23;;;;;;;38.08;25.75;;;29.80;56.70;;;;;;4974647;28;20027;-41
2021/06/24 06:46:48;;;;;;;39.97;28.27;;;29.90;56.40;;;;;;4991442;28;20514;-44
2021/06/24 06:49:14;;;;;;;37.28;27.15;;;29.80;56.40;;;;;;4992060;28;20113;-41
2021/06/24 06:51:40;;;;;;;36.50;25.58;;;29.60;57.00;;;;;;4991737;28;20109;-41
2021/06/24 06:54:06;;;;;;;32.80;25.20;;;29.90;56.60;;;;;;4990712;28;20424;-43
2021/06/24 06:56:32;;;;;;;34.90;26.17;;;30.60;55.30;;;;;;4987771;28;20275;-47
2021/06/24 06:58:59;;;;;;;34.45;25.65;;;32.00;53.00;;;;;;4990101;28;20176;-41
2021/06/24 07:01:25;;;;;;;34.13;25.83;;;32.90;51.00;;;;;;4989519;28;20478;-41
2021/06/24 07:03:51;;;;;;;33.85;25.63;;;33.90;48.80;;;;;;4973244;28;20030;-43
2021/06/24 07:06:17;;;;;;;35.47;23.48;;;34.80;46.90;;;;;;4991866;28;20412;-42
2021/06/24 07:11:27;;;;;;;33.92;23.73;;;34.60;45.30;;;;;;4992817;28;20065;-45
2021/06/24 07:13:53;;;;;;;33.30;22.92;;;33.50;47.00;;;;;;4991665;28;20109;-42
2021/06/24 07:16:19;;;;;;;32.30;23.58;;;33.00;48.50;;;;;;4991318;28;20120;-43
2021/06/24 07:18:45;;;;;;;32.33;24.58;;;32.70;48.70;;;;;;4991034;28;20046;-43
2021/06/24 07:21:11;;;;;;;32.30;23.40;;;32.30;49.50;;;;;;4991439;28;20031;-46
2021/06/24 07:23:37;;;;;;;36.17;22.05;;;32.30;50.10;;;;;;4973398;28;20026;-45
2021/06/24 07:26:03;;;;;;;28.20;23.63;;;32.30;50.40;;;;;;4991508;28;20030;-41
2021/06/24 07:28:29;;;;;;;29.65;23.70;;;33.70;48.10;;;;;;4991867;28;20045;-42
2021/06/24 07:30:55;;;;;;;33.83;24.13;;;34.10;47.70;;;;;;4991037;28;20404;-43
2021/06/24 07:33:21;;;;;;;28.08;22.55;;;35.40;45.30;;;;;;4991530;28;20089;-41
2021/06/24 07:35:47;;;;;;;29.52;22.35;;;36.60;43.00;;;;;;4990859;28;20026;-46
2021/06/24 07:38:13;;;;;;;30.02;21.27;;;37.90;40.90;;;;;;4991273;28;20544;-41
2021/06/24 07:40:41;;;;;;;32.38;20.98;;;37.80;40.50;;;;;;4991055;28;20026;-44
2021/06/24 07:43:07;;;;;;;25.40;18.00;;;39.00;39.00;;;;;;4995613;28;20068;-42
2021/06/24 07:45:34;;;;;;;28.58;19.20;;;39.80;37.10;;;;;;4995331;28;20449;-44
2021/06/24 07:48:00;;;;;;;22.35;16.83;;;38.20;37.70;;;;;;4995385;28;20394;-47
2021/06/24 07:50:26;;;;;;;22.67;15.40;;;37.60;39.90;;;;;;4977586;28;20026;-43
2021/06/24 07:52:52;;;;;;;18.48;14.98;;;39.60;37.50;;;;;;4977387;28;20208;-42
2021/06/24 07:55:17;;;;;;;22.02;14.45;;;41.60;34.90;;;;;;4977579;28;20030;-46
2021/06/24 07:57:43;;;;;;;19.23;14.35;;;42.70;33.50;;;;;;4994751;28;20034;-49
2021/06/24 08:00:11;;;;;;;18.13;13.65;;;43.30;32.60;;;;;;4995223;28;20441;-47
2021/06/24 08:02:36;;;;;;;17.05;12.80;;;43.90;31.70;;;;;;4960877;28;20338;-46
2021/06/24 08:05:04;;;;;;;20.73;13.18;;;44.70;30.70;;;;;;4995385;28;20042;-42
2021/06/24 08:07:30;;;;;;;21.10;13.57;;;45.40;29.90;;;;;;4993898;28;20101;-43
2021/06/24 08:10:01;;;;;;;16.88;12.52;;;45.50;29.50;;;;;;4994385;28;20036;-47
2021/06/24 08:12:27;;;;;;;20.30;14.00;;;46.00;29.30;;;;;;4977908;28;20462;-49
2021/06/24 08:14:53;;;;;;;19.95;13.55;;;46.10;29.00;;;;;;4977222;28;20274;-41
2021/06/24 08:17:19;;;;;;;24.25;14.75;;;46.30;29.30;;;;;;4994516;28;20114;-47
2021/06/24 08:19:45;;;;;;;20.98;14.00;;;46.10;28.60;;;;;;4994548;28;20033;-44
2021/06/24 08:22:11;;;;;;;21.70;16.80;;;45.80;29.00;;;;;;4976841;28;20026;-44
2021/06/24 08:24:37;;;;;;;25.15;14.52;;;45.80;28.90;;;;;;4993676;28;20061;-47
2021/06/24 08:27:21;;;;;;;20.50;14.25;;;46.10;28.70;;;;;;4977311;28;20026;-44
2021/06/24 08:29:49;;;;;;;20.80;14.98;;;46.00;28.50;;;;;;4976675;28;20045;-41
2021/06/24 08:32:15;;;;;;;27.15;14.57;;;46.30;28.50;;;;;;4992859;28;20481;-46
2021/06/24 08:34:41;;;;;;;21.35;16.02;;;46.50;28.30;;;;;;4994096;28;20046;-44
2021/06/24 08:37:06;;;;;;;23.00;15.52;;;46.90;28.10;;;;;;4992940;28;20031;-41
2021/06/24 08:39:33;;;;;;;18.08;15.55;;;46.90;27.90;;;;;;4994680;28;20512;-48
2021/06/24 08:41:58;;;;;;;26.67;14.82;;;46.30;28.00;;;;;;4993682;28;20038;-42
2021/06/24 08:44:24;;;;;;;23.45;14.30;;;45.60;28.60;;;;;;4977057;28;20030;-44
2021/06/24 08:46:53;;;;;;;26.52;15.95;;;45.40;28.80;;;;;;4976255;28;20124;-42
2021/06/24 08:49:24;;;;;;;23.30;15.93;;;44.50;29.30;;;;;;4994306;28;20034;-48
2021/06/24 08:51:54;;;;;;;27.50;16.38;;;44.90;29.60;;;;;;4992581;28;20077;-44
2021/06/24 08:54:21;;;;;;;25.80;16.73;;;44.30;29.30;;;;;;4992923;28;20034;-44
2021/06/24 08:56:48;;;;;;;22.23;15.13;;;43.30;30.40;;;;;;4993465;28;20029;-47
2021/06/24 08:59:14;;;;;;;26.45;17.30;;;44.30;30.00;;;;;;4994428;28;20042;-47
2021/06/24 09:01:51;;;;;;;19.60;14.40;;;45.30;29.10;;;;;;4993261;28;20484;-44
2021/06/24 09:04:21;;;;;;;23.02;14.63;;;45.50;29.10;;;;;;4993832;28;20032;-45
2021/06/24 09:06:48;;;;;;;19.95;14.32;;;46.80;28.30;;;;;;4993462;28;20128;-44
2021/06/24 09:09:33;;;;;;;21.55;14.15;;;47.40;27.80;;;;;;4989436;28;20092;-48
2021/06/24 09:12:03;;;;;;;25.10;15.07;;;47.70;27.00;;;;;;4973607;28;20452;-47
2021/06/24 09:14:39;;;;;;;19.42;12.70;;;47.90;27.20;;;;;;4991956;28;20018;-47
2021/06/24 09:17:05;;;;;;;21.30;15.73;;;48.40;27.10;;;;;;4993713;28;20018;-48
2021/06/24 09:19:31;;;;;;;25.27;16.60;;;48.90;26.90;;;;;;4985922;28;20030;-51
2021/06/24 09:22:08;;;;;;;23.63;14.80;;;49.40;26.70;;;;;;4990640;28;20337;-51
2021/06/24 09:24:48;;;;;;;27.50;14.60;;;48.70;26.50;;;;;;4992761;28;20441;-51
2021/06/24 09:27:17;;;;;;;24.70;15.20;;;46.00;27.70;;;;;;4990538;28;20065;-51
2021/06/24 09:29:48;;;;;;;20.38;14.98;;;44.10;29.10;;;;;;4991821;28;20048;-45
2021/06/24 09:32:29;;;;;;;27.48;15.73;;;42.50;30.00;;;;;;4992214;28;20077;-46
2021/06/24 09:34:55;;;;;;;22.42;17.52;;;40.90;32.40;;;;;;4993099;28;20075;-53
2021/06/24 09:37:21;;;;;;;32.58;18.73;;;39.80;33.60;;;;;;4991799;28;20022;-45
2021/06/24 09:39:48;;;;;;;28.17;17.30;;;38.70;35.80;;;;;;4975521;28;20057;-50
2021/06/24 09:42:14;;;;;;;29.60;18.80;;;37.80;36.60;;;;;;4975382;28;20118;-44
2021/06/24 09:44:45;;;;;;;23.02;18.85;;;37.20;37.90;;;;;;4993048;28;20026;-46
2021/06/24 09:47:29;;;;;;;25.45;19.65;;;36.60;38.60;;;;;;4975568;28;20078;-48
2021/06/24 09:49:57;;;;;;;25.45;17.85;;;35.90;40.00;;;;;;4991334;28;20030;-46
2021/06/24 09:52:23;;;;;;;31.02;19.25;;;35.60;40.40;;;;;;4991756;28;20120;-46
2021/06/24 09:54:59;;;;;;;30.80;18.95;;;35.30;41.60;;;;;;4992080;28;20106;-48
2021/06/24 09:57:25;;;;;;;32.63;22.40;;;35.20;41.60;;;;;;4992972;28;20050;-49
2021/06/24 09:59:53;;;;;;;31.50;20.63;;;35.00;41.80;;;;;;4973952;28;20081;-48
2021/06/24 10:02:20;;;;;;;33.22;20.52;;;34.60;42.50;;;;;;4992354;28;20042;-46
2021/06/24 10:04:47;;;;;;;30.00;20.58;;;34.50;43.50;;;;;;4974344;28;20442;-50
2021/06/24 10:07:16;;;;;;;27.83;19.50;;;34.30;43.60;;;;;;4974857;28;20125;-50
2021/06/24 10:09:44;;;;;;;32.20;19.80;;;34.20;43.90;;;;;;4974610;28;20034;-50
2021/06/24 10:12:15;;;;;;;30.15;20.77;;;34.30;43.80;;;;;;4992736;28;20085;-50
2021/06/24 10:14:42;;;;;;;32.80;20.35;;;34.40;43.80;;;;;;4991926;28;20030;-48
2021/06/24 10:17:09;;;;;;;31.13;20.08;;;34.20;44.30;;;;;;4992406;28;20065;-47
2021/06/24 10:19:41;;;;;;;31.05;18.80;;;34.20;44.40;;;;;;4992369;28;20041;-46
2021/06/24 10:22:12;;;;;;;31.08;18.00;;;34.20;43.70;;;;;;4975069;28;20049;-46
2021/06/24 10:24:57;;;;;;;23.42;16.95;;;34.10;43.50;;;;;;4992634;28;20033;-48
2021/06/24 10:27:33;;;;;;;29.48;18.30;;;34.00;43.80;;;;;;4974945;28;20026;-45
2021/06/24 10:30:10;;;;;;;30.77;19.38;;;34.10;43.90;;;;;;4990499;28;20034;-45
2021/06/24 10:32:37;;;;;;;30.13;20.20;;;33.90;44.30;;;;;;4974664;28;20034;-45
2021/06/24 10:35:08;;;;;;;29.45;18.90;;;33.80;44.60;;;;;;4991805;28;20135;-44
2021/06/24 10:37:35;;;;;;;27.52;19.75;;;33.70;44.70;;;;;;4990512;28;20026;-48
2021/06/24 10:40:21;;;;;;;38.50;24.55;;;33.50;44.90;;;;;;4990047;28;20169;-47
2021/06/24 10:42:57;;;;;;;31.88;19.02;;;33.40;45.00;;;;;;4990769;28;20029;-47
2021/06/24 10:45:24;;;;;;;30.23;18.33;;;33.30;45.40;;;;;;4973888;28;20018;-45
2021/06/24 10:47:51;;;;;;;31.20;17.52;;;33.20;45.20;;;;;;4972782;28;20517;-47
2021/06/24 10:52:59;;;;;;;31.30;18.77;;;33.50;45.00;;;;;;4991382;28;20058;-45
2021/06/24 10:55:31;;;;;;;26.48;17.88;;;33.70;44.40;;;;;;4990448;28;20077;-50
2021/06/24 10:57:58;;;;;;;28.33;17.25;;;33.80;44.30;;;;;;4991537;28;20047;-47
2021/06/24 11:00:34;;;;;;;24.85;16.00;;;33.80;43.80;;;;;;4991474;28;20125;-45
2021/06/24 11:03:02;;;;;;;32.78;16.35;;;33.80;43.90;;;;;;4973313;28;20022;-43
2021/06/24 11:05:45;;;;;;;28.45;15.63;;;33.90;43.90;;;;;;4989450;28;20040;-43
2021/06/24 11:08:14;;;;;;;23.58;14.07;;;33.60;43.40;;;;;;4974034;28;20505;-48
2021/06/24 11:11:09;;;;;;;25.25;14.93;;;33.20;43.60;;;;;;4989899;28;20062;-45
2021/06/24 11:16:06;;;;;;;27.50;14.35;;;33.10;43.80;;;;;;4990741;28;20087;-45
2021/06/24 11:18:35;;;;;;;32.72;12.75;;;33.30;43.60;;;;;;4991799;28;20042;-49
2021/06/24 11:21:12;;;;;;;30.23;12.27;;;33.30;42.60;;;;;;4990748;28;20049;-45
2021/06/24 11:23:41;;;;;;;50.38;16.85;;;33.40;42.40;;;;;;4989909;28;20050;-43
2021/06/24 11:26:09;;;;;;;32.17;13.05;;;33.50;42.20;;;;;;4973533;28;20381;-49
2021/06/24 11:28:55;;;;;;;42.70;13.60;;;33.40;42.70;;;;;;4991512;28;20383;-48
2021/06/24 11:31:53;;;;;;;24.73;13.63;;;33.40;42.80;;;;;;4985887;28;20393;-45
2021/06/24 11:34:46;;;;;;;27.83;13.48;;;33.60;42.80;;;;;;4987746;28;20053;-49
2021/06/24 11:37:16;;;;;;;26.47;14.03;;;33.60;42.60;;;;;;4985876;28;20109;-45
2021/06/24 11:39:49;;;;;;;28.25;13.82;;;33.70;42.90;;;;;;4985320;28;20469;-45
2021/06/24 11:42:19;;;;;;;28.55;14.88;;;33.70;42.90;;;;;;4971229;28;20033;-47
2021/06/24 11:44:49;;;;;;;35.85;18.85;;;33.80;42.90;;;;;;4971184;28;20027;-48
2021/06/24 11:47:21;;;;;;;31.20;15.10;;;33.70;43.30;;;;;;4971464;28;20478;-52
2021/06/24 12:04:45;;;;;;;27.55;14.20;;;34.40;42.80;;;;;;4909751;29;20070;-49
2021/06/24 12:07:12;;;;;;;24.58;13.75;;;34.40;42.80;;;;;;4909346;29;20080;-46
2021/06/24 12:09:50;;;;;;;29.95;13.73;;;34.40;42.80;;;;;;4940603;28;20108;-47
2021/06/24 12:12:16;;;;;;;27.70;14.07;;;34.30;42.80;;;;;;4988882;28;20098;-50
2021/06/24 12:14:43;;;;;;;21.13;13.75;;;34.30;42.60;;;;;;4991194;28;20233;-45
2021/06/24 12:17:14;;;;;;;26.65;13.95;;;34.20;42.80;;;;;;4987197;28;20504;-47
2021/06/24 12:19:55;;;;;;;27.15;14.30;;;34.10;42.90;;;;;;4971675;28;20039;-48
2021/06/24 12:25:22;;;;;;;30.35;13.80;;;34.30;43.10;;;;;;4987887;28;20493;-49
2021/06/24 12:27:48;;;;;;;25.77;13.60;;;34.50;42.60;;;;;;4984846;28;20038;-48
2021/06/24 12:30:24;;;;;;;31.23;12.75;;;34.50;42.70;;;;;;4974514;28;20544;-48
2021/06/24 12:32:59;;;;;;;33.58;13.25;;;34.70;41.80;;;;;;4991044;28;20073;-49
2021/06/24 12:35:29;;;;;;;29.88;13.68;;;34.70;41.40;;;;;;4975946;28;20062;-46
2021/06/24 12:37:57;;;;;;;34.13;13.88;;;34.70;41.50;;;;;;4993833;28;20488;-46
2021/06/24 12:40:26;;;;;;;26.38;12.38;;;34.70;41.30;;;;;;4992179;28;20484;-44
2021/06/24 12:42:56;;;;;;;31.48;12.80;;;35.00;41.00;;;;;;4992267;28;20113;-51
2021/06/24 12:45:29;;;;;;;40.42;14.00;;;35.10;40.80;;;;;;4991063;28;20019;-44
2021/06/24 12:47:56;;;;;;;;;;;35.00;40.60;;;;;;4990866;28;20123;-51
2021/06/24 12:50:24;;;;;;;37.53;17.33;;;34.90;40.80;;;;;;4994282;28;19906;-51
2021/06/24 12:53:05;;;;;;;26.67;14.20;;;34.90;40.80;;;;;;4990585;28;20118;-43
2021/06/24 12:55:54;;;;;;;28.67;14.02;;;34.90;41.00;;;;;;4974016;28;20030;-47
2021/06/24 12:58:27;;;;;;;21.83;12.85;;;35.10;41.40;;;;;;4968640;28;20113;-50
2021/06/24 13:01:12;;;;;;;22.33;13.43;;;35.40;40.50;;;;;;4976203;28;20516;-45
2021/06/24 13:03:42;;;;;;;29.33;13.25;;;35.50;40.50;;;;;;4994218;28;20034;-46
2021/06/24 13:06:29;;;;;;;27.05;12.75;;;35.50;40.50;;;;;;4972332;28;20026;-44